Time;durP1;ratioP1;P1;durP2;ratioP2;P2;SDS_P1;SDS_P2;PMS_P1;PMS_P2;Temp;Humidity;BMP_temperature;BMP_pressure;BME280_temperature;BME280_humidity;BME280_pressure;Samples;Min_cycle;Max_cycle;Signal;HPM_P1;HPM_P2
2020/12/12 00:01:40;;;;;;;10.90;6.12;;;;;;;4.03;76.44;100099.91;1750695;82;21820;-57
2020/12/12 00:04:08;;;;;;;18.52;7.60;;;;;;;3.95;76.70;100103.75;1753260;82;21172;-57
2020/12/12 00:06:36;;;;;;;16.77;7.65;;;;;;;3.96;76.68;100103.31;1744758;82;21955;-57
2020/12/12 00:09:03;;;;;;;19.00;6.95;;;;;;;4.01;76.62;100110.30;1746642;81;21625;-57
2020/12/12 00:11:31;;;;;;;14.38;7.35;;;;;;;4.04;76.42;100115.09;1749088;82;21553;-63
2020/12/12 00:13:58;;;;;;;14.03;7.00;;;;;;;4.09;76.32;100113.41;1731507;82;21575;-57
2020/12/12 00:16:26;;;;;;;15.13;7.35;;;;;;;4.11;76.26;100116.91;1745738;82;21604;-57
2020/12/12 00:18:53;;;;;;;13.40;6.95;;;;;;;4.12;76.23;100116.94;1711693;82;21506;-57
2020/12/12 00:21:24;;;;;;;12.78;7.65;;;;;;;4.13;76.16;100116.08;1752380;82;21588;-57
2020/12/12 00:23:51;;;;;;;11.88;6.85;;;;;;;4.13;76.23;100115.19;1743737;82;21559;-57
2020/12/12 00:26:25;;;;;;;14.10;7.22;;;;;;;4.10;76.29;100112.55;1724145;82;21561;-63
2020/12/12 00:28:51;;;;;;;11.43;6.92;;;;;;;4.09;76.31;100106.90;1717338;82;21287;-63
2020/12/12 00:31:19;;;;;;;11.28;6.33;;;;;;;4.07;76.34;100109.50;1732512;82;21620;-57
2020/12/12 00:33:47;;;;;;;12.03;6.58;;;;;;;4.06;76.41;100104.27;1747425;82;21205;-57
2020/12/12 00:36:16;;;;;;;12.33;6.40;;;;;;;3.98;76.64;100097.69;1732741;82;21156;-57
2020/12/12 00:38:43;;;;;;;13.83;6.75;;;;;;;4.01;76.62;100095.97;1744868;82;21195;-62
2020/12/12 00:41:11;;;;;;;13.72;6.47;;;;;;;3.96;76.76;100100.70;1750919;82;21178;-63
2020/12/12 00:43:38;;;;;;;11.55;6.17;;;;;;;3.95;76.74;100099.84;1737936;82;21590;-62
2020/12/12 00:46:06;;;;;;;10.93;5.92;;;;;;;4.05;76.48;100108.61;1734535;81;21183;-63
2020/12/12 00:48:34;;;;;;;13.68;6.50;;;;;;;3.97;76.74;100098.13;1728125;82;21329;-57
2020/12/12 00:51:02;;;;;;;13.35;6.95;;;;;;;3.99;76.83;100105.95;1742729;82;21612;-57
2020/12/12 00:53:29;;;;;;;11.75;6.47;;;;;;;3.98;76.87;100106.80;1725658;81;21143;-57
2020/12/12 00:55:57;;;;;;;13.53;6.80;;;;;;;4.04;76.74;100106.87;1715716;82;21143;-57
2020/12/12 00:58:25;;;;;;;13.38;6.87;;;;;;;4.06;76.64;100102.96;1724725;82;21133;-56
2020/12/12 01:00:54;;;;;;;12.95;6.70;;;;;;;4.07;76.55;100096.48;1733708;82;21146;-62
2020/12/12 01:03:22;;;;;;;13.03;6.33;;;;;;;4.08;76.50;100084.31;1698975;84;21150;-63
2020/12/12 01:05:50;;;;;;;13.28;6.17;;;;;;;4.08;76.53;100083.02;1724685;82;21163;-63
2020/12/12 01:08:17;;;;;;;15.10;6.72;;;;;;;4.10;76.51;100078.70;1737665;82;21558;-63
2020/12/12 01:10:45;;;;;;;16.67;6.90;;;;;;;4.12;76.41;100067.86;1742101;82;21603;-63
2020/12/12 01:13:13;;;;;;;12.68;6.87;;;;;;;4.12;76.36;100062.65;1741415;82;21175;-62
2020/12/12 01:15:40;;;;;;;10.48;6.58;;;;;;;4.21;76.17;100060.13;1744680;81;21519;-63
2020/12/12 01:18:08;;;;;;;16.37;7.80;;;;;;;4.22;76.17;100055.78;1735426;82;21631;-57
2020/12/12 01:20:37;;;;;;;12.78;6.60;;;;;;;4.23;76.11;100058.83;1733263;81;21147;-57
2020/12/12 01:23:05;;;;;;;11.50;6.25;;;;;;;4.21;76.09;100051.43;1738044;82;21604;-57
2020/12/12 01:25:37;;;;;;;10.60;6.17;;;;;;;4.23;76.08;100049.30;1718831;82;21588;-57
2020/12/12 01:28:02;;;;;;;17.53;6.90;;;;;;;4.25;76.03;100049.30;1740175;82;21623;-57
2020/12/12 01:30:30;;;;;;;15.08;6.53;;;;;;;4.25;76.04;100053.20;1724734;82;21627;-57
2020/12/12 01:32:58;;;;;;;17.17;6.12;;;;;;;4.24;75.99;100045.83;1744603;81;21574;-57
2020/12/12 01:35:25;;;;;;;12.23;6.12;;;;;;;4.20;76.15;100047.97;1719463;82;21543;-57
2020/12/12 01:37:53;;;;;;;12.40;5.80;;;;;;;4.23;76.14;100045.80;1741348;82;21542;-57
2020/12/12 01:40:21;;;;;;;11.80;5.92;;;;;;;4.24;76.12;100047.55;1736431;82;21139;-57
2020/12/12 01:42:49;;;;;;;13.75;6.58;;;;;;;4.25;76.10;100055.39;1741408;82;21143;-57
2020/12/12 01:45:16;;;;;;;14.18;5.97;;;;;;;4.23;76.13;100053.20;1723636;82;21607;-57
2020/12/12 01:47:44;;;;;;;10.30;5.50;;;;;;;4.24;76.20;100060.16;1736430;82;21553;-57
2020/12/12 01:50:11;;;;;;;13.40;7.60;;;;;;;4.25;76.17;100058.00;1724042;81;21152;-57
2020/12/12 01:52:39;;;;;;;12.90;6.10;;;;;;;4.27;76.16;100058.00;1727807;82;21665;-63
2020/12/12 01:55:07;;;;;;;13.93;6.08;;;;;;;4.26;76.06;100053.23;1746214;82;21583;-63
2020/12/12 01:57:34;;;;;;;12.45;5.92;;;;;;;4.28;76.08;100045.41;1733347;82;21614;-63
2020/12/12 02:00:02;;;;;;;9.65;5.58;;;;;;;4.29;76.07;100045.44;1722700;81;21607;-62
2020/12/12 02:02:30;;;;;;;16.12;6.00;;;;;;;4.31;76.03;100044.14;1718904;82;21329;-62
2020/12/12 02:04:58;;;;;;;14.10;5.22;;;;;;;4.33;76.02;100040.26;1728012;82;21113;-62
2020/12/12 02:07:25;;;;;;;12.30;5.78;;;;;;;4.33;76.00;100038.95;1703507;84;21621;-63
2020/12/12 02:09:53;;;;;;;12.53;5.70;;;;;;;4.34;75.98;100031.14;1700810;84;21182;-57
2020/12/12 02:12:21;;;;;;;17.87;6.85;;;;;;;4.36;75.88;100037.68;1737849;82;21609;-57
2020/12/12 02:14:48;;;;;;;13.22;6.58;;;;;;;4.36;75.93;100035.93;1726437;82;21169;-57
2020/12/12 02:17:16;;;;;;;14.35;6.80;;;;;;;4.36;75.92;100035.93;1738286;82;21607;-57
2020/12/12 02:19:44;;;;;;;17.62;6.33;;;;;;;4.39;75.80;100032.05;1738134;82;21187;-57
2020/12/12 02:22:11;;;;;;;12.30;5.65;;;;;;;4.38;75.82;100037.27;1712843;82;21629;-58
2020/12/12 02:24:39;;;;;;;14.90;6.67;;;;;;;4.36;75.85;100024.20;1727436;82;21146;-57
2020/12/12 02:27:07;;;;;;;14.75;6.60;;;;;;;4.37;75.86;100026.40;1733741;81;21162;-57
2020/12/12 02:29:46;;;;;;;11.57;6.20;;;;;;;4.40;75.72;100025.97;1713470;82;21194;-57
2020/12/12 02:32:11;;;;;;;7.70;5.37;;;;;;;4.42;75.61;100030.77;1723900;82;21119;-57
2020/12/12 02:34:38;;;;;;;13.60;6.30;;;;;;;4.41;75.62;100036.84;1699510;84;21635;-63
2020/12/12 02:37:06;;;;;;;19.87;7.10;;;;;;;4.39;75.68;100043.77;1720666;82;21321;-63
2020/12/12 02:39:35;;;;;;;12.88;5.87;;;;;;;4.37;75.81;100031.16;1712754;82;21231;-63
2020/12/12 02:42:02;;;;;;;11.97;5.92;;;;;;;4.37;75.82;100029.86;1723415;82;21614;-63
2020/12/12 02:44:31;;;;;;;10.63;5.45;;;;;;;4.37;75.87;100032.47;1684900;84;21182;-62
2020/12/12 02:46:59;;;;;;;13.88;6.65;;;;;;;4.40;75.69;100028.58;1741876;81;21581;-62
2020/12/12 02:49:27;;;;;;;15.10;6.53;;;;;;;4.35;75.87;100026.81;1707082;83;21130;-62
2020/12/12 02:51:54;;;;;;;11.10;6.30;;;;;;;4.39;75.81;100020.32;1726082;82;21574;-63
2020/12/12 02:54:22;;;;;;;13.13;5.85;;;;;;;4.34;76.02;100025.06;1738006;81;21551;-63
2020/12/12 02:56:50;;;;;;;11.70;5.97;;;;;;;4.25;76.21;100021.94;1734004;82;21158;-63
2020/12/12 02:59:18;;;;;;;12.75;6.35;;;;;;;4.25;76.20;100014.13;1723886;82;21574;-62
2020/12/12 03:01:45;;;;;;;13.78;5.75;;;;;;;4.27;76.22;100013.30;1741324;82;21566;-62
2020/12/12 03:04:13;;;;;;;13.98;6.42;;;;;;;4.25;76.28;100005.89;1739989;82;21182;-63
2020/12/12 03:06:44;;;;;;;13.65;6.12;;;;;;;4.28;76.21;100014.15;1748007;81;21091;-62
2020/12/12 03:09:10;;;;;;;13.38;6.30;;;;;;;4.29;76.15;100009.38;1738079;82;21561;-62
2020/12/12 03:11:40;;;;;;;12.40;6.62;;;;;;;4.28;76.19;100007.64;1689397;84;21145;-57
2020/12/12 03:14:07;;;;;;;15.88;7.37;;;;;;;4.30;76.20;100013.32;1696061;84;21597;-57
2020/12/12 03:16:35;;;;;;;12.78;7.00;;;;;;;4.31;76.11;100015.48;1746567;82;21167;-57
2020/12/12 03:19:03;;;;;;;13.62;5.87;;;;;;;4.30;76.17;100019.83;1719711;82;21146;-57
2020/12/12 03:21:33;;;;;;;14.35;5.67;;;;;;;4.33;75.97;100018.97;1692226;84;21142;-57
2020/12/12 03:24:00;;;;;;;17.17;6.83;;;;;;;4.34;76.00;100022.02;1741069;82;21165;-57
2020/12/12 03:26:28;;;;;;;15.35;6.60;;;;;;;4.36;75.94;100027.26;1746555;82;21599;-57
2020/12/12 03:28:55;;;;;;;20.77;7.03;;;;;;;4.36;75.87;100029.86;1732072;82;21713;-57
2020/12/12 03:31:23;;;;;;;14.75;5.80;;;;;;;4.37;75.92;100032.91;1712162;84;21577;-57
2020/12/12 03:33:50;;;;;;;14.18;6.50;;;;;;;4.36;75.86;100028.56;1727633;82;21149;-57
2020/12/12 03:36:20;;;;;;;16.65;6.40;;;;;;;4.38;75.85;100034.21;1743047;82;21550;-57
2020/12/12 03:38:47;;;;;;;16.93;5.87;;;;;;;4.37;75.83;100032.47;1727358;81;21610;-56
2020/12/12 03:41:15;;;;;;;21.60;7.80;;;;;;;4.39;75.85;100034.66;1712198;82;21407;-57
2020/12/12 03:43:42;;;;;;;11.00;5.60;;;;;;;4.32;75.97;100028.95;1725637;82;21547;-57
2020/12/12 03:46:10;;;;;;;12.45;6.10;;;;;;;4.26;76.25;100034.11;1743426;82;21571;-57
2020/12/12 03:48:38;;;;;;;21.75;7.97;;;;;;;4.23;76.34;100037.58;1708378;84;21159;-57
2020/12/12 03:51:05;;;;;;;13.58;5.80;;;;;;;4.22;76.44;100031.92;1735223;82;21172;-62
2020/12/12 03:53:33;;;;;;;12.45;6.08;;;;;;;4.23;76.46;100033.67;1735242;82;21597;-63
2020/12/12 03:56:01;;;;;;;15.38;6.28;;;;;;;4.22;76.51;100032.33;1747225;82;21139;-63
2020/12/12 03:58:28;;;;;;;18.17;6.75;;;;;;;4.20;76.57;100030.14;1727629;82;21599;-62
2020/12/12 04:00:56;;;;;;;12.40;6.00;;;;;;;4.23;76.53;100023.66;1747779;82;21586;-57
2020/12/12 04:03:23;;;;;;;17.73;7.35;;;;;;;4.26;76.46;100015.87;1749364;82;21657;-57
2020/12/12 04:05:51;;;;;;;18.25;7.40;;;;;;;4.20;76.57;100010.61;1706498;84;21163;-57
2020/12/12 04:08:19;;;;;;;14.45;7.00;;;;;;;4.17;76.67;100016.67;1747444;81;21740;-57
2020/12/12 04:10:48;;;;;;;14.25;6.33;;;;;;;4.18;76.73;100021.48;1732280;81;21115;-57
2020/12/12 04:13:16;;;;;;;16.07;7.12;;;;;;;4.19;76.68;100026.69;1745746;82;21628;-57
2020/12/12 04:15:43;;;;;;;12.37;6.42;;;;;;;4.18;76.74;100014.52;1742559;82;21178;-57
2020/12/12 04:18:11;;;;;;;14.93;7.08;;;;;;;4.20;76.68;100017.12;1733494;82;21119;-63
2020/12/12 04:20:38;;;;;;;12.28;6.62;;;;;;;4.21;76.63;100014.95;1734414;82;21127;-63
2020/12/12 04:23:06;;;;;;;13.13;6.67;;;;;;;4.23;76.56;100012.83;1734766;82;21712;-62
2020/12/12 04:25:34;;;;;;;18.05;9.08;;;;;;;4.19;76.64;100011.05;1738597;82;21135;-62
2020/12/12 04:28:02;;;;;;;17.73;7.53;;;;;;;4.14;76.80;100004.52;1747939;82;21281;-63
2020/12/12 04:30:29;;;;;;;15.30;7.92;;;;;;;4.17;76.84;100015.38;1743740;82;21759;-63
2020/12/12 04:32:57;;;;;;;14.80;7.87;;;;;;;4.18;76.81;100011.91;1733543;81;21163;-63
2020/12/12 04:35:24;;;;;;;15.10;6.87;;;;;;;4.13;76.90;100002.77;1738057;82;21588;-63
2020/12/12 04:37:51;;;;;;;16.17;7.45;;;;;;;4.10;77.00;100014.88;1714537;82;21522;-63
2020/12/12 04:40:19;;;;;;;15.70;7.83;;;;;;;4.05;77.75;100014.85;1741655;82;21736;-62
2020/12/12 04:42:46;;;;;;;15.80;7.10;;;;;;;4.04;77.95;100025.24;1735710;81;21633;-57
2020/12/12 04:45:20;;;;;;;12.13;6.50;;;;;;;4.07;77.87;100027.88;1738571;82;21574;-57
2020/12/12 04:47:44;;;;;;;18.85;7.97;;;;;;;4.07;77.87;100023.97;1687248;84;21190;-57
2020/12/12 04:50:12;;;;;;;15.43;8.03;;;;;;;4.10;77.70;100031.40;1741008;82;21116;-57
2020/12/12 04:52:42;;;;;;;19.10;7.80;;;;;;;4.11;77.60;100028.34;1735967;82;21096;-57
2020/12/12 04:55:10;;;;;;;13.55;6.95;;;;;;;4.16;77.42;100027.95;1736098;82;21968;-57
2020/12/12 04:57:38;;;;;;;20.85;7.60;;;;;;;4.18;77.29;100026.69;1744762;82;21155;-57
2020/12/12 05:00:12;;;;;;;15.98;6.33;;;;;;;4.13;77.30;100031.42;1701126;83;21779;-62
2020/12/12 05:02:40;;;;;;;14.33;7.17;;;;;;;4.12;77.29;100029.68;1732269;82;21140;-63
2020/12/12 05:05:08;;;;;;;15.40;7.30;;;;;;;4.11;77.38;100042.26;1733577;81;21144;-62
2020/12/12 05:07:36;;;;;;;22.10;7.87;;;;;;;4.13;77.22;100035.33;1738714;82;21605;-62
2020/12/12 05:10:04;;;;;;;23.73;7.50;;;;;;;4.13;77.32;100034.03;1745790;82;21629;-62
2020/12/12 05:12:34;;;;;;;16.30;7.28;;;;;;;4.22;77.13;100037.55;1738181;82;21559;-62
2020/12/12 05:15:02;;;;;;;16.07;8.08;;;;;;;4.19;77.08;100033.20;1748203;82;21096;-62
2020/12/12 05:17:30;;;;;;;19.35;7.47;;;;;;;4.12;77.20;100038.80;1733860;82;21637;-57
2020/12/12 05:19:58;;;;;;;16.17;7.97;;;;;;;4.08;77.31;100042.64;1746641;82;21135;-57
2020/12/12 05:22:26;;;;;;;16.37;7.72;;;;;;;4.07;77.27;100046.11;1720116;82;21143;-62
2020/12/12 05:24:54;;;;;;;16.05;6.92;;;;;;;4.19;76.90;100046.22;1736957;82;21608;-62
2020/12/12 05:27:21;;;;;;;14.80;7.50;;;;;;;4.12;77.05;100049.22;1730652;82;21155;-61
2020/12/12 05:29:49;;;;;;;14.87;8.10;;;;;;;4.12;77.00;100047.02;1726234;82;21605;-57
2020/12/12 05:32:17;;;;;;;15.93;8.83;;;;;;;4.09;77.13;100048.30;1736441;82;21167;-56
2020/12/12 05:34:45;;;;;;;20.43;8.88;;;;;;;4.11;77.08;100037.05;1743141;82;21163;-57
2020/12/12 05:37:13;;;;;;;22.70;9.08;;;;;;;4.13;76.88;100029.23;1710108;82;21171;-61
2020/12/12 05:39:41;;;;;;;20.65;9.08;;;;;;;4.16;76.81;100032.75;1710275;83;21604;-61
2020/12/12 05:42:09;;;;;;;19.50;10.70;;;;;;;4.04;77.10;100034.36;1667459;85;21204;-62
2020/12/12 05:44:36;;;;;;;19.45;8.28;;;;;;;4.02;77.50;100040.87;1722944;82;21632;-61
2020/12/12 05:47:04;;;;;;;15.20;8.00;;;;;;;4.11;77.18;100042.67;1737937;82;21567;-63
2020/12/12 05:49:33;;;;;;;13.58;6.65;;;;;;;4.05;77.30;100046.52;1759582;81;21623;-57
2020/12/12 05:52:01;;;;;;;20.87;8.47;;;;;;;4.04;77.38;100044.36;1757120;81;21637;-57
2020/12/12 05:54:29;;;;;;;17.12;7.55;;;;;;;4.02;77.46;100049.98;1695652;81;21138;-56
2020/12/12 05:57:00;;;;;;;12.93;6.65;;;;;;;4.09;77.24;100050.91;1742206;81;21235;-57
2020/12/12 05:59:27;;;;;;;18.48;7.97;;;;;;;4.11;77.15;100057.00;1731498;81;21362;-57
2020/12/12 06:01:55;;;;;;;16.82;6.95;;;;;;;4.10;77.11;100053.95;1737528;81;21526;-57
2020/12/12 06:04:24;;;;;;;11.53;5.97;;;;;;;4.08;77.08;100060.46;1648020;83;21166;-57
2020/12/12 06:06:53;;;;;;;14.10;6.87;;;;;;;4.04;77.11;100059.09;1687694;84;21579;-60
2020/12/12 06:09:20;;;;;;;13.90;7.10;;;;;;;3.99;77.32;100061.67;1649280;84;21157;-60
2020/12/12 06:11:48;;;;;;;18.67;7.17;;;;;;;3.96;77.38;100061.23;1693255;84;21299;-60
2020/12/12 06:14:16;;;;;;;15.78;6.35;;;;;;;3.93;77.34;100069.01;1692511;84;21581;-61
2020/12/12 06:16:44;;;;;;;12.82;6.72;;;;;;;3.87;77.70;100068.94;1702120;83;21570;-57
2020/12/12 06:19:17;;;;;;;12.23;7.67;;;;;;;3.79;77.82;100070.14;1697724;84;21193;-57
2020/12/12 06:21:47;;;;;;;15.15;6.80;;;;;;;3.86;77.73;100068.05;1710147;82;21541;-59
2020/12/12 06:24:18;;;;;;;12.90;7.15;;;;;;;3.87;77.71;100072.84;1698982;84;21168;-63
2020/12/12 06:27:05;;;;;;;11.97;6.08;;;;;;;3.92;77.47;100065.96;1701840;84;21609;-61
2020/12/12 06:29:39;;;;;;;14.70;7.28;;;;;;;3.96;77.30;100062.53;1685665;84;21165;-62
2020/12/12 06:32:14;;;;;;;15.35;7.20;;;;;;;3.94;77.45;100065.96;1700854;84;21278;-62
2020/12/12 06:34:47;;;;;;;12.53;7.03;;;;;;;3.94;77.47;100065.96;1674107;84;21652;-62
2020/12/12 06:37:34;;;;;;;11.85;6.75;;;;;;;3.94;77.47;100068.15;1678662;84;21618;-63
2020/12/12 06:40:10;;;;;;;12.85;6.72;;;;;;;3.96;77.41;100062.94;1695701;84;21146;-63
2020/12/12 06:42:43;;;;;;;13.30;6.30;;;;;;;3.96;77.40;100063.83;1701246;84;21757;-63
2020/12/12 06:45:19;;;;;;;11.68;6.35;;;;;;;3.95;77.40;100058.18;1704668;84;21155;-63
2020/12/12 06:47:52;;;;;;;10.08;6.45;;;;;;;3.96;77.32;100065.55;1699537;84;21657;-63
2020/12/12 06:50:23;;;;;;;12.75;7.25;;;;;;;3.94;77.40;100062.05;1750723;81;21273;-63
2020/12/12 06:52:51;;;;;;;13.30;8.08;;;;;;;4.06;77.01;100059.58;1745603;81;21128;-63
2020/12/12 06:55:21;;;;;;;12.88;7.40;;;;;;;3.95;77.27;100068.59;1728908;81;21155;-63
2020/12/12 06:57:55;;;;;;;12.85;6.75;;;;;;;3.93;77.38;100062.50;1748893;82;21147;-63
2020/12/12 07:00:33;;;;;;;10.85;6.70;;;;;;;4.02;77.10;100056.49;1738035;81;21534;-63
2020/12/12 07:03:05;;;;;;;11.30;5.45;;;;;;;4.56;75.00;100053.46;1745728;82;21554;-63
2020/12/12 07:05:35;;;;;;;9.90;6.08;;;;;;;4.13;76.56;100053.98;1738251;82;21542;-63
2020/12/12 07:08:08;;;;;;;13.38;6.97;;;;;;;4.07;76.71;100066.53;1751238;82;21156;-63
2020/12/12 07:10:37;;;;;;;11.78;6.45;;;;;;;4.06;76.77;100075.61;1748808;82;21547;-63
2020/12/12 07:13:05;;;;;;;11.10;6.43;;;;;;;4.10;76.63;100073.07;1756351;82;21141;-64
2020/12/12 07:15:35;;;;;;;10.20;5.55;;;;;;;4.13;76.62;100065.28;1750210;81;21609;-63
2020/12/12 07:18:11;;;;;;;13.55;6.08;;;;;;;4.08;76.78;100072.59;1748169;82;21188;-64
2020/12/12 07:20:42;;;;;;;10.60;5.17;;;;;;;4.04;76.83;100070.81;1714948;83;21569;-63
2020/12/12 07:23:11;;;;;;;10.25;5.87;;;;;;;3.98;77.02;100085.97;1746563;81;21131;-63
2020/12/12 07:25:39;;;;;;;11.75;5.65;;;;;;;3.93;77.26;100075.93;1747454;81;21285;-63
2020/12/12 07:28:08;;;;;;;9.38;5.45;;;;;;;3.93;77.29;100070.72;1739250;82;21184;-64
2020/12/12 07:30:35;;;;;;;11.08;5.33;;;;;;;4.10;76.65;100076.98;1734508;82;21566;-63
2020/12/12 07:33:03;;;;;;;9.83;5.75;;;;;;;4.02;77.04;100075.58;1739513;81;21140;-64
2020/12/12 07:35:30;;;;;;;8.03;5.25;;;;;;;4.04;77.07;100073.42;1727835;81;21538;-64
2020/12/12 07:38:04;;;;;;;11.08;5.87;;;;;;;4.13;76.87;100074.81;1744357;82;21182;-64
2020/12/12 07:40:35;;;;;;;10.13;4.95;;;;;;;4.16;76.82;100077.45;1745930;81;21578;-64
2020/12/12 07:43:08;;;;;;;8.25;4.85;;;;;;;4.20;76.70;100068.81;1744737;82;21139;-64
2020/12/12 07:48:05;;;;;;;11.20;5.90;;;;;;;4.20;76.81;100074.02;1747061;81;21564;-64
2020/12/12 08:04:27;;;;;;;9.23;6.22;;;;;;;4.36;77.73;100090.66;1798212;77;28767;-60
2020/12/12 08:06:55;;;;;;;7.12;4.42;;;;;;;4.28;77.67;100090.59;1774546;80;21549;-60
2020/12/12 08:09:25;;;;;;;10.10;5.70;;;;;;;4.28;77.67;100097.11;1788503;80;21599;-59
2020/12/12 08:11:59;;;;;;;8.80;4.87;;;;;;;4.28;77.67;100097.11;1800319;78;22369;-60
2020/12/12 08:14:28;;;;;;;10.68;5.30;;;;;;;4.29;77.58;100096.25;1789263;79;21537;-57
2020/12/12 08:17:00;;;;;;;8.55;4.80;;;;;;;4.31;77.57;100091.93;1795746;79;21189;-59
2020/12/12 08:19:29;;;;;;;12.10;4.75;;;;;;;4.32;77.56;100094.09;1755700;79;21280;-58
2020/12/12 08:22:14;;;;;;;7.95;4.83;;;;;;;4.42;77.21;100092.42;1790399;79;21272;-58
2020/12/12 08:24:44;;;;;;;9.23;5.05;;;;;;;4.35;77.36;100092.81;1795971;80;21109;-59
2020/12/12 08:27:15;;;;;;;11.20;4.92;;;;;;;4.27;77.65;100084.94;1761628;81;21154;-59
2020/12/12 08:29:52;;;;;;;8.28;4.60;;;;;;;4.25;78.09;100085.77;1724686;83;21124;-60
2020/12/12 08:32:41;;;;;;;14.28;5.85;;;;;;;4.23;78.39;100086.19;1733140;81;21167;-61
2020/12/12 08:35:40;;;;;;;10.18;4.90;;;;;;;4.34;78.19;100087.61;1762530;81;21664;-61
2020/12/12 08:38:13;;;;;;;10.98;4.80;;;;;;;4.40;78.13;100092.42;1726023;81;21203;-60
2020/12/12 08:40:49;;;;;;;13.70;5.50;;;;;;;4.46;78.11;100084.66;1770423;81;21288;-60
2020/12/12 08:43:17;;;;;;;12.30;6.15;;;;;;;4.48;78.10;100086.41;1765671;80;21141;-59
2020/12/12 08:45:57;;;;;;;9.05;5.33;;;;;;;4.45;78.07;100082.03;1779880;80;21132;-59
2020/12/12 08:48:37;;;;;;;10.80;5.80;;;;;;;4.52;77.63;100066.88;1756653;80;21166;-59
2020/12/12 08:51:06;;;;;;;11.33;6.42;;;;;;;4.50;77.56;100063.39;1745715;81;21283;-61
2020/12/12 08:53:43;;;;;;;11.25;5.53;;;;;;;4.40;77.86;100056.39;1769075;81;21182;-61
2020/12/12 08:56:28;;;;;;;9.90;4.72;;;;;;;4.39;77.95;100059.86;1735737;81;21589;-58
2020/12/12 08:59:06;;;;;;;12.63;6.50;;;;;;;4.38;78.06;100060.72;1763146;81;21149;-59
2020/12/12 09:01:42;;;;;;;9.75;5.65;;;;;;;4.43;78.07;100059.88;1759740;80;21130;-61
2020/12/12 09:06:57;;;;;;;8.05;4.22;;;;;;;6.32;72.19;100047.13;1815779;77;22144;-58
2020/12/12 09:09:29;;;;;;;8.38;5.08;;;;;;;4.76;76.78;100049.68;1739670;81;21131;-57
2020/12/12 09:12:08;;;;;;;9.10;4.60;;;;;;;5.50;74.38;100051.32;1738252;80;21103;-58
2020/12/12 09:14:44;;;;;;;10.38;5.45;;;;;;;4.57;77.45;100057.37;1748105;81;21157;-57
2020/12/12 09:17:14;;;;;;;9.13;5.42;;;;;;;4.52;77.96;100047.33;1734336;81;21193;-58
2020/12/12 09:19:42;;;;;;;9.23;4.55;;;;;;;4.50;78.23;100047.75;1743902;81;21138;-58
2020/12/12 09:22:12;;;;;;;9.50;4.45;;;;;;;4.54;78.27;100033.03;1732217;81;21207;-59
2020/12/12 09:24:39;;;;;;;10.32;4.75;;;;;;;4.52;78.05;100043.87;1745257;80;21704;-58
2020/12/12 09:27:09;;;;;;;8.23;4.62;;;;;;;5.62;74.09;100041.34;1721909;81;21541;-59
2020/12/12 09:29:38;;;;;;;10.38;5.17;;;;;;;6.53;71.62;100040.56;1705190;83;21117;-60
2020/12/12 09:32:06;;;;;;;11.55;5.30;;;;;;;5.51;75.10;100046.98;1695668;83;21184;-58
2020/12/12 09:34:37;;;;;;;9.18;4.78;;;;;;;5.30;74.41;100047.34;1690236;83;21162;-60
2020/12/12 09:37:08;;;;;;;10.32;5.45;;;;;;;4.66;76.90;100047.42;1704893;83;21126;-59
2020/12/12 09:39:37;;;;;;;10.35;5.90;;;;;;;4.57;77.41;100046.94;1663240;85;21291;-59
2020/12/12 09:42:06;;;;;;;8.93;4.80;;;;;;;5.78;73.87;100037.47;1698570;83;21319;-59
2020/12/12 09:44:35;;;;;;;9.85;5.45;;;;;;;4.69;77.04;100045.28;1704073;83;21176;-59
2020/12/12 09:47:03;;;;;;;10.38;5.12;;;;;;;4.58;77.63;100052.59;1720477;83;21150;-59
2020/12/12 09:49:31;;;;;;;8.15;4.75;;;;;;;4.52;77.92;100044.73;1703537;83;21160;-60
2020/12/12 09:51:58;;;;;;;6.37;4.00;;;;;;;4.51;77.88;100048.20;1704882;82;21293;-58
2020/12/12 09:54:26;;;;;;;6.10;3.95;;;;;;;4.50;78.07;100046.90;1725621;83;21170;-59
2020/12/12 09:56:54;;;;;;;7.65;4.55;;;;;;;4.39;78.25;100039.01;1722071;83;21126;-60
2020/12/12 09:59:23;;;;;;;6.42;4.28;;;;;;;4.40;78.39;100039.45;1708231;83;21579;-60
2020/12/12 10:01:51;;;;;;;7.37;4.80;;;;;;;4.36;78.35;100042.44;1714942;83;21122;-60
2020/12/12 10:04:19;;;;;;;7.83;4.58;;;;;;;4.37;78.48;100041.59;1715445;83;21170;-60
2020/12/12 10:06:47;;;;;;;7.45;4.03;;;;;;;4.38;78.59;100038.56;1689782;83;21155;-60
2020/12/12 10:09:14;;;;;;;7.05;4.17;;;;;;;4.43;78.48;100038.14;1703895;84;21155;-61
2020/12/12 10:11:42;;;;;;;7.75;4.10;;;;;;;4.41;78.44;100034.69;1728036;82;21147;-59
2020/12/12 10:14:12;;;;;;;6.80;3.72;;;;;;;4.43;78.48;100033.81;1739894;82;21178;-59
2020/12/12 10:16:39;;;;;;;7.58;3.83;;;;;;;4.45;78.49;100037.72;1715849;82;21127;-60
2020/12/12 10:19:08;;;;;;;6.05;3.42;;;;;;;4.42;78.33;100037.28;1687831;83;21149;-60
2020/12/12 10:21:36;;;;;;;6.25;3.85;;;;;;;4.41;78.27;100034.23;1674730;84;21154;-59
2020/12/12 10:24:03;;;;;;;6.12;3.58;;;;;;;4.41;78.24;100033.37;1688838;84;21601;-59
2020/12/12 10:26:30;;;;;;;5.58;3.00;;;;;;;4.40;78.35;100030.33;1690329;84;21451;-59
2020/12/12 10:28:59;;;;;;;7.58;3.85;;;;;;;4.44;78.44;100022.95;1699369;84;21203;-59
2020/12/12 10:31:26;;;;;;;6.05;3.37;;;;;;;4.44;78.58;100021.64;1698629;84;21186;-60
2020/12/12 10:33:54;;;;;;;6.22;3.65;;;;;;;4.46;78.60;100025.13;1739118;82;21103;-59
2020/12/12 10:36:23;;;;;;;5.35;3.05;;;;;;;4.48;78.55;100026.47;1726957;82;21261;-59
2020/12/12 10:38:52;;;;;;;5.47;3.22;;;;;;;4.53;78.56;100029.98;1740700;82;21567;-59
2020/12/12 10:41:20;;;;;;;4.78;2.80;;;;;;;4.52;78.63;100021.72;1740524;82;21570;-59
2020/12/12 10:43:49;;;;;;;7.92;3.50;;;;;;;4.55;78.65;100019.99;1729118;82;21615;-59
2020/12/12 10:46:17;;;;;;;7.47;3.62;;;;;;;4.53;78.64;100016.50;1744771;82;21159;-59
2020/12/12 10:48:45;;;;;;;5.28;3.20;;;;;;;4.55;78.67;100016.53;1738856;80;21127;-59
2020/12/12 10:51:17;;;;;;;6.10;3.35;;;;;;;4.51;79.13;100016.92;1731609;81;21284;-59
2020/12/12 10:53:45;;;;;;;5.62;3.20;;;;;;;4.56;79.03;100008.70;1737381;82;21147;-60
2020/12/12 10:56:13;;;;;;;6.58;3.62;;;;;;;4.58;79.11;100016.55;1733362;81;21598;-59
2020/12/12 10:58:41;;;;;;;5.67;3.55;;;;;;;4.59;79.11;100015.69;1682388;84;21985;-62
2020/12/12 11:01:09;;;;;;;5.47;3.02;;;;;;;4.59;79.10;100015.24;1684278;84;21300;-61
2020/12/12 11:03:36;;;;;;;5.03;2.65;;;;;;;4.59;79.23;100019.59;1744491;80;21260;-59
2020/12/12 11:06:04;;;;;;;5.78;3.08;;;;;;;4.67;79.14;100015.73;1745622;81;21111;-59
2020/12/12 11:08:31;;;;;;;4.97;2.92;;;;;;;4.66;79.19;100013.98;1732199;80;21479;-59
2020/12/12 11:11:00;;;;;;;7.37;3.05;;;;;;;4.71;78.95;100016.19;1748084;81;21143;-59
2020/12/12 11:13:28;;;;;;;8.40;3.05;;;;;;;4.78;78.65;100018.39;1739966;80;21594;-61
2020/12/12 11:15:56;;;;;;;6.05;2.90;;;;;;;4.61;79.15;100016.58;1743594;81;21190;-59
2020/12/12 11:18:24;;;;;;;7.58;3.75;;;;;;;4.54;79.57;100014.34;1733050;80;21149;-61
2020/12/12 11:20:51;;;;;;;7.95;3.80;;;;;;;4.53;79.53;100007.38;1736876;82;21539;-62
2020/12/12 11:23:19;;;;;;;9.50;4.62;;;;;;;4.52;79.61;100014.75;1733812;81;21192;-60
2020/12/12 11:25:48;;;;;;;7.20;3.90;;;;;;;4.49;79.89;100012.58;1737821;82;21126;-59
2020/12/12 11:28:15;;;;;;;7.55;3.45;;;;;;;4.56;79.71;100023.04;1750361;81;21568;-61
2020/12/12 11:30:44;;;;;;;7.30;4.25;;;;;;;4.58;79.69;100023.06;1673617;83;21102;-61
2020/12/12 11:33:12;;;;;;;7.47;3.85;;;;;;;4.61;79.72;100028.30;1685975;83;21222;-62
2020/12/12 11:38:25;;;;;;;10.72;4.65;;;;;;;4.65;79.45;100039.61;1684056;84;21155;-61
2020/12/12 11:48:37;;;;;;;10.43;2.90;;;;;;;4.61;80.02;100034.82;1732257;82;21137;-59
2020/12/12 11:51:05;;;;;;;4.27;2.97;;;;;;;4.66;79.69;100030.48;1733712;82;21135;-58
2020/12/12 11:53:33;;;;;;;4.62;2.67;;;;;;;5.43;76.52;100031.28;1697959;84;21721;-61
2020/12/12 11:56:02;;;;;;;6.28;2.92;;;;;;;4.88;78.71;100036.69;1746673;82;21119;-59
2020/12/12 11:58:32;;;;;;;8.18;3.00;;;;;;;4.81;79.09;100034.05;1678568;83;21136;-60
2020/12/12 12:01:03;;;;;;;5.70;2.72;;;;;;;4.76;79.21;100037.50;1746974;82;21509;-61
2020/12/12 12:03:32;;;;;;;8.28;2.60;;;;;;;4.74;79.27;100035.77;1709676;84;21619;-59
2020/12/12 12:06:00;;;;;;;6.20;3.20;;;;;;;4.80;79.39;100032.30;1712728;83;21111;-59